createdAt,value
2018-06-08T00:00:45.148Z,20.34
2018-06-08T00:01:45.289Z,20.32
2018-06-08T00:02:45.161Z,20.44
2018-06-08T00:03:45.197Z,20.41
2018-06-08T00:04:45.209Z,20.30
2018-06-08T00:05:45.196Z,20.41
2018-06-08T00:06:45.214Z,20.44
2018-06-08T00:07:45.229Z,20.40
2018-06-08T00:08:45.239Z,20.29
2018-06-08T00:09:45.255Z,20.40
2018-06-08T00:10:45.278Z,20.35
2018-06-08T00:11:45.387Z,20.41
2018-06-08T00:12:45.325Z,20.32
2018-06-08T00:13:45.314Z,20.46
2018-06-08T00:14:45.356Z,20.41
2018-06-08T00:15:45.344Z,20.38
2018-06-08T00:16:45.386Z,20.44
2018-06-08T00:17:45.398Z,20.38
2018-06-08T00:18:45.399Z,20.38
2018-06-08T00:19:45.402Z,20.32
2018-06-08T00:20:45.443Z,20.37
2018-06-08T00:21:45.552Z,20.41
2018-06-08T00:22:45.458Z,20.40
2018-06-08T00:23:45.460Z,20.38
2018-06-08T00:24:45.479Z,20.38
2018-06-08T00:25:45.492Z,20.41
2018-06-08T00:26:45.606Z,20.32
2018-06-08T00:27:45.522Z,20.34
2018-06-08T00:28:45.547Z,20.37
2018-06-08T00:29:45.553Z,20.30
2018-06-08T00:30:45.568Z,20.30
2018-06-08T00:31:45.608Z,20.37
2018-06-08T00:32:45.697Z,20.27
2018-06-08T00:33:45.642Z,20.38
2018-06-08T00:34:45.628Z,20.32
2018-06-08T00:35:45.639Z,20.29
2018-06-08T00:36:45.663Z,20.27
2018-06-08T00:37:45.847Z,20.29
2018-06-08T00:38:45.714Z,20.29
2018-06-08T00:39:45.700Z,20.34
2018-06-08T00:40:45.728Z,20.25
2018-06-08T00:41:45.730Z,20.27
2018-06-08T00:42:45.846Z,20.25
2018-06-08T00:43:45.763Z,20.29
2018-06-08T00:44:45.773Z,20.23
2018-06-08T00:45:45.786Z,20.26
2018-06-08T00:46:45.800Z,20.26
2018-06-08T00:47:45.926Z,20.19
2018-06-08T00:48:45.833Z,20.18
2018-06-08T00:49:45.872Z,20.12
2018-06-08T00:50:45.893Z,20.18
2018-06-08T00:51:45.875Z,20.12
2018-06-08T00:52:46.043Z,20.19
2018-06-08T00:53:45.955Z,20.15
2018-06-08T00:54:45.941Z,20.16
2018-06-08T00:55:45.962Z,20.19
2018-06-08T00:56:45.977Z,20.18
2018-06-08T00:57:46.065Z,20.18
2018-06-08T00:58:45.987Z,20.26
2018-06-08T00:59:46.019Z,20.19
2018-06-08T01:00:46.010Z,20.20
2018-06-08T01:01:46.037Z,20.12
2018-06-08T01:02:46.190Z,20.11
2018-06-08T01:03:46.076Z,20.16
2018-06-08T01:04:46.066Z,20.15
2018-06-08T01:05:46.089Z,20.18
2018-06-08T01:06:46.123Z,20.18
2018-06-08T01:07:46.245Z,20.16
2018-06-08T01:08:46.125Z,20.20
2018-06-08T01:09:46.149Z,20.23
2018-06-08T01:10:46.158Z,20.27
2018-06-08T01:11:46.169Z,20.22
2018-06-08T01:12:46.367Z,20.26
2018-06-08T01:13:46.198Z,20.29
2018-06-08T01:14:46.229Z,20.30
2018-06-08T01:15:46.258Z,20.27
2018-06-08T01:16:46.255Z,20.37
2018-06-08T01:17:46.358Z,20.32
2018-06-08T01:18:46.272Z,20.38
2018-06-08T01:19:46.321Z,20.27
2018-06-08T01:20:46.305Z,20.27
2018-06-08T01:21:46.312Z,20.29
2018-06-08T01:22:46.456Z,20.32
2018-06-08T01:23:46.344Z,20.26
2018-06-08T01:24:46.385Z,20.23
2018-06-08T01:25:46.379Z,20.25
2018-06-08T01:26:46.386Z,20.23
2018-06-08T01:27:46.506Z,20.27
2018-06-08T01:28:46.448Z,20.25
2018-06-08T01:29:46.434Z,20.23
2018-06-08T01:30:46.453Z,20.25
2018-06-08T01:31:46.466Z,20.26
2018-06-08T01:32:46.579Z,20.26
2018-06-08T01:33:46.498Z,20.22
2018-06-08T01:34:46.509Z,20.23
2018-06-08T01:35:46.525Z,20.22
2018-06-08T01:36:46.569Z,20.25
2018-06-08T01:37:46.638Z,20.29
2018-06-08T01:38:46.717Z,20.22
2018-06-08T01:39:46.586Z,20.22
2018-06-08T01:40:46.604Z,20.26
2018-06-08T01:41:46.636Z,20.23
2018-06-08T01:42:46.627Z,20.23
2018-06-08T01:43:46.792Z,20.25
2018-06-08T01:44:46.682Z,20.20
2018-06-08T01:45:46.671Z,20.16
2018-06-08T01:46:46.717Z,20.18
2018-06-08T01:47:46.727Z,20.18
2018-06-08T01:48:46.813Z,20.11
2018-06-08T01:49:46.741Z,20.15
2018-06-08T01:50:46.772Z,20.16
2018-06-08T01:51:46.763Z,20.20
2018-06-08T01:52:46.775Z,20.12
2018-06-08T01:53:46.912Z,20.19
2018-06-08T01:54:46.833Z,20.07
2018-06-08T01:55:46.816Z,20.11
2018-06-08T01:56:46.858Z,20.12
2018-06-08T01:57:46.874Z,20.10
2018-06-08T01:58:47.010Z,20.10
2018-06-08T01:59:46.874Z,20.08
2018-06-08T02:00:46.905Z,20.08
2018-06-08T02:01:46.930Z,19.95
2018-06-08T02:02:46.923Z,20.07
2018-06-08T02:03:47.046Z,20.10
2018-06-08T02:04:46.964Z,20.07
2018-06-08T02:05:46.966Z,19.97
2018-06-08T02:06:46.983Z,20.00
2018-06-08T02:07:47.025Z,20.01
2018-06-08T02:08:47.124Z,19.98
2018-06-08T02:09:47.022Z,20.00
2018-06-08T02:10:47.067Z,19.98
2018-06-08T02:11:47.059Z,19.93
2018-06-08T02:12:47.061Z,19.89
2018-06-08T02:13:47.233Z,19.90
2018-06-08T02:14:47.123Z,19.87
2018-06-08T02:15:47.112Z,19.86
2018-06-08T02:16:47.138Z,19.78
2018-06-08T02:17:47.137Z,19.83
2018-06-08T02:18:47.330Z,19.83
2018-06-08T02:19:47.196Z,19.86
2018-06-08T02:20:47.216Z,19.89
2018-06-08T02:21:47.207Z,19.82
2018-06-08T02:22:47.215Z,19.83
2018-06-08T02:23:47.345Z,19.87
2018-06-08T02:24:47.265Z,19.87
2018-06-08T02:25:47.258Z,19.85
2018-06-08T02:26:47.270Z,19.79
2018-06-08T02:27:47.287Z,19.82
2018-06-08T02:28:47.427Z,19.83
2018-06-08T02:29:47.341Z,19.83
2018-06-08T02:30:47.342Z,19.79
2018-06-08T02:31:47.343Z,19.79
2018-06-08T02:32:47.361Z,19.72
2018-06-08T02:33:47.596Z,19.80
2018-06-08T02:34:47.403Z,19.75
2018-06-08T02:35:47.429Z,19.72
2018-06-08T02:36:47.443Z,19.74
2018-06-08T02:37:47.455Z,19.72
2018-06-08T02:38:47.606Z,19.75
2018-06-08T02:39:47.458Z,19.70
2018-06-08T02:40:47.500Z,19.72
2018-06-08T02:41:47.504Z,19.75
2018-06-08T02:42:47.533Z,19.80
2018-06-08T02:43:47.529Z,19.74
2018-06-08T02:44:47.712Z,19.68
2018-06-08T02:45:47.555Z,19.64
2018-06-08T02:46:47.589Z,19.60
2018-06-08T02:47:47.608Z,19.50
2018-06-08T02:48:47.591Z,19.64
2018-06-08T02:49:47.717Z,19.55
2018-06-08T02:50:47.621Z,19.55
2018-06-08T02:51:47.661Z,19.56
2018-06-08T02:52:47.674Z,19.38
2018-06-08T02:53:47.675Z,19.34
2018-06-08T02:54:47.855Z,19.40
2018-06-08T02:55:47.698Z,19.35
2018-06-08T02:56:47.738Z,19.20
2018-06-08T02:57:47.724Z,19.24
2018-06-08T02:58:47.745Z,19.20
2018-06-08T02:59:47.899Z,19.25
2018-06-08T03:00:47.772Z,19.17
2018-06-08T03:01:47.777Z,19.20
2018-06-08T03:02:47.788Z,19.20
2018-06-08T03:03:47.805Z,19.12
2018-06-08T03:04:47.998Z,19.13
2018-06-08T03:05:47.836Z,19.20
2018-06-08T03:06:47.876Z,19.07
2018-06-08T03:07:47.863Z,19.19
2018-06-08T03:08:47.901Z,18.96
2018-06-08T03:09:48.045Z,19.00
2018-06-08T03:10:47.918Z,19.06
2018-06-08T03:11:47.931Z,18.93
2018-06-08T03:12:47.952Z,18.93
2018-06-08T03:13:47.980Z,18.91
2018-06-08T03:14:48.083Z,18.86
2018-06-08T03:15:48.003Z,18.78
2018-06-08T03:16:47.989Z,18.87
2018-06-08T03:17:48.019Z,18.74
2018-06-08T03:18:48.020Z,18.74
2018-06-08T03:19:48.134Z,18.72
2018-06-08T03:20:48.049Z,18.71
2018-06-08T03:21:48.088Z,18.72
2018-06-08T03:22:48.102Z,18.66
2018-06-08T03:23:48.087Z,18.59
2018-06-08T03:24:48.201Z,18.61
2018-06-08T03:25:48.124Z,18.61
2018-06-08T03:26:48.157Z,18.63
2018-06-08T03:27:48.139Z,18.50
2018-06-08T03:28:48.185Z,18.53
2018-06-08T03:29:48.277Z,18.49
2018-06-08T03:30:48.217Z,18.53
2018-06-08T03:31:48.227Z,18.53
2018-06-08T03:32:48.212Z,18.42
2018-06-08T03:33:48.258Z,18.39
2018-06-08T03:34:48.401Z,18.39
2018-06-08T03:35:48.289Z,18.27
2018-06-08T03:36:48.297Z,18.26
2018-06-08T03:37:48.310Z,18.29
2018-06-08T03:38:48.304Z,18.35
2018-06-08T03:39:48.455Z,18.27
2018-06-08T03:40:48.332Z,18.26
2018-06-08T03:41:48.365Z,18.32
2018-06-08T03:42:48.355Z,18.31
2018-06-08T03:43:48.360Z,18.34
2018-06-08T03:44:48.556Z,18.27
2018-06-08T03:45:48.419Z,18.24
2018-06-08T03:46:48.434Z,18.29
2018-06-08T03:47:48.447Z,18.29
2018-06-08T03:48:48.440Z,18.31
2018-06-08T03:49:48.445Z,18.31
2018-06-08T03:50:48.636Z,18.26
2018-06-08T03:51:48.484Z,18.27
2018-06-08T03:52:48.493Z,18.24
2018-06-08T03:53:48.525Z,18.14
2018-06-08T03:54:48.516Z,18.13
2018-06-08T03:55:48.530Z,18.14
2018-06-08T03:56:48.701Z,18.19
2018-06-08T03:57:48.571Z,18.10
2018-06-08T03:58:48.597Z,18.06
2018-06-08T03:59:48.614Z,18.06
2018-06-08T04:00:48.596Z,18.16
2018-06-08T04:01:48.774Z,18.06
2018-06-08T04:02:48.623Z,18.10
2018-06-08T04:03:48.642Z,18.06
2018-06-08T04:04:48.654Z,18.06
2018-06-08T04:05:48.692Z,18.11
2018-06-08T04:06:48.858Z,18.10
2018-06-08T04:07:48.701Z,18.08
2018-06-08T04:08:48.729Z,18.08
2018-06-08T04:09:48.731Z,18.08
2018-06-08T04:10:48.758Z,17.98
2018-06-08T04:11:48.844Z,17.94
2018-06-08T04:12:48.788Z,17.94
2018-06-08T04:13:48.796Z,17.84
2018-06-08T04:14:48.810Z,17.88
2018-06-08T04:15:48.823Z,17.88
2018-06-08T04:16:48.919Z,17.86
2018-06-08T04:17:48.833Z,17.88
2018-06-08T04:18:48.848Z,17.87
2018-06-08T04:19:48.880Z,17.79
2018-06-08T04:20:48.893Z,17.73
2018-06-08T04:21:49.029Z,17.74
2018-06-08T04:22:48.903Z,17.69
2018-06-08T04:23:48.910Z,17.80
2018-06-08T04:24:48.922Z,17.68
2018-06-08T04:25:48.986Z,17.66
2018-06-08T04:26:49.079Z,17.81
2018-06-08T04:27:48.967Z,17.68
2018-06-08T04:28:48.979Z,17.73
2018-06-08T04:29:48.991Z,17.76
2018-06-08T04:30:49.024Z,17.63
2018-06-08T04:31:49.115Z,17.81
2018-06-08T04:32:49.150Z,17.73
2018-06-08T04:33:49.072Z,17.73
2018-06-08T04:34:49.063Z,17.74
2018-06-08T04:35:49.079Z,17.66
2018-06-08T04:36:49.238Z,17.73
2018-06-08T04:37:49.092Z,17.66
2018-06-08T04:38:49.109Z,17.66
2018-06-08T04:39:49.119Z,17.60
2018-06-08T04:40:49.135Z,17.62
2018-06-08T04:41:49.249Z,17.65
2018-06-08T04:42:49.185Z,17.54
2018-06-08T04:43:49.208Z,17.54
2018-06-08T04:44:49.213Z,17.54
2018-06-08T04:45:49.203Z,17.52
2018-06-08T04:46:49.317Z,17.50
2018-06-08T04:47:49.233Z,17.49
2018-06-08T04:48:49.250Z,17.52
2018-06-08T04:49:49.264Z,17.50
2018-06-08T04:50:49.293Z,17.60
2018-06-08T04:51:49.407Z,17.57
2018-06-08T04:52:49.321Z,17.49
2018-06-08T04:53:49.315Z,17.47
2018-06-08T04:54:49.331Z,17.42
2018-06-08T04:55:49.360Z,17.40
2018-06-08T04:56:49.474Z,17.45
2018-06-08T04:57:49.363Z,17.45
2018-06-08T04:58:49.373Z,17.45
2018-06-08T04:59:49.417Z,17.38
2018-06-08T05:00:49.400Z,17.40
2018-06-08T05:01:49.514Z,17.49
2018-06-08T05:02:49.454Z,17.43
2018-06-08T05:03:49.450Z,17.46
2018-06-08T05:04:49.478Z,17.42
2018-06-08T05:05:49.475Z,17.46
2018-06-08T05:06:49.481Z,17.45
2018-06-08T05:07:49.617Z,17.40
2018-06-08T05:08:49.536Z,17.40
2018-06-08T05:09:49.539Z,17.38
2018-06-08T05:10:49.548Z,17.38
2018-06-08T05:11:49.552Z,17.35
2018-06-08T05:12:49.661Z,17.40
2018-06-08T05:13:49.599Z,17.36
2018-06-08T05:14:49.593Z,17.46
2018-06-08T05:15:49.606Z,17.36
2018-06-08T05:16:49.637Z,17.32
2018-06-08T05:17:49.776Z,17.36
2018-06-08T05:18:49.671Z,17.28
2018-06-08T05:19:49.683Z,17.32
2018-06-08T05:20:49.696Z,17.39
2018-06-08T05:21:49.705Z,17.35
2018-06-08T05:22:49.792Z,17.30
2018-06-08T05:23:49.717Z,17.35
2018-06-08T05:24:49.742Z,17.31
2018-06-08T05:25:49.756Z,17.39
2018-06-08T05:26:49.745Z,17.28
2018-06-08T05:27:49.868Z,17.28
2018-06-08T05:28:49.798Z,17.32
2018-06-08T05:29:49.810Z,17.31
2018-06-08T05:30:49.808Z,17.32
2018-06-08T05:31:49.859Z,17.31
2018-06-08T05:32:49.978Z,17.32
2018-06-08T05:33:49.840Z,17.32
2018-06-08T05:34:49.879Z,17.31
2018-06-08T05:35:49.865Z,17.35
2018-06-08T05:36:49.902Z,17.35
2018-06-08T05:37:50.017Z,17.35
2018-06-08T05:38:49.916Z,17.24
2018-06-08T05:39:49.928Z,17.36
2018-06-08T05:40:49.927Z,17.36
2018-06-08T05:41:49.955Z,17.27
2018-06-08T05:42:50.109Z,17.20
2018-06-08T05:43:50.003Z,17.20
2018-06-08T05:44:50.010Z,17.32
2018-06-08T05:45:50.023Z,17.32
2018-06-08T05:46:50.024Z,17.32
2018-06-08T05:47:50.170Z,17.32
2018-06-08T05:48:50.053Z,17.21
2018-06-08T05:49:50.077Z,17.28
2018-06-08T05:50:50.090Z,17.32
2018-06-08T05:51:50.092Z,17.27
2018-06-08T05:52:50.201Z,17.22
2018-06-08T05:53:50.107Z,17.24
2018-06-08T05:54:50.120Z,17.25
2018-06-08T05:55:50.129Z,17.24
2018-06-08T05:56:50.146Z,17.30
2018-06-08T05:57:50.335Z,17.32
2018-06-08T05:58:50.170Z,17.38
2018-06-08T05:59:50.183Z,17.35
2018-06-08T06:00:50.220Z,17.36
2018-06-08T06:01:50.209Z,17.36
2018-06-08T06:02:50.349Z,17.32
2018-06-08T06:03:50.238Z,17.31
2018-06-08T06:04:50.281Z,17.35
2018-06-08T06:05:50.301Z,17.45
2018-06-08T06:06:50.279Z,17.42
2018-06-08T06:07:50.392Z,17.40
2018-06-08T06:08:50.314Z,17.40
2018-06-08T06:09:50.325Z,17.40
2018-06-08T06:10:50.348Z,17.45
2018-06-08T06:11:50.344Z,17.46
2018-06-08T06:12:50.454Z,17.39
2018-06-08T06:13:50.382Z,17.38
2018-06-08T06:14:50.451Z,17.54
2018-06-08T06:15:50.454Z,17.49
2018-06-08T06:16:50.439Z,17.46
2018-06-08T06:17:50.600Z,17.52
2018-06-08T06:18:50.438Z,17.50
2018-06-08T06:19:50.449Z,17.57
2018-06-08T06:20:50.496Z,17.50
2018-06-08T06:21:50.478Z,17.55
2018-06-08T06:22:50.517Z,17.62
2018-06-08T06:23:50.627Z,17.66
2018-06-08T06:24:50.517Z,17.58
2018-06-08T06:25:50.554Z,17.63
2018-06-08T06:26:50.552Z,17.60
2018-06-08T06:27:50.566Z,17.58
2018-06-08T06:28:50.682Z,17.54
2018-06-08T06:29:50.582Z,17.52
2018-06-08T06:30:50.608Z,17.46
2018-06-08T06:31:50.639Z,17.43
2018-06-08T06:32:50.652Z,17.42
2018-06-08T06:33:50.754Z,17.43
2018-06-08T06:34:50.649Z,17.43
2018-06-08T06:35:50.690Z,17.42
2018-06-08T06:36:50.703Z,17.46
2018-06-08T06:37:50.691Z,17.39
2018-06-08T06:38:50.827Z,17.45
2018-06-08T06:39:50.714Z,17.39
2018-06-08T06:40:50.726Z,17.43
2018-06-08T06:41:50.771Z,17.39
2018-06-08T06:42:50.783Z,17.39
2018-06-08T06:43:50.947Z,17.38
2018-06-08T06:44:50.848Z,17.31
2018-06-08T06:45:50.797Z,17.31
2018-06-08T06:46:50.832Z,17.38
2018-06-08T06:47:50.846Z,17.36
2018-06-08T06:48:50.958Z,17.27
2018-06-08T06:49:50.874Z,17.20
2018-06-08T06:50:50.862Z,17.21
2018-06-08T06:51:50.878Z,17.20
2018-06-08T06:52:50.885Z,17.38
2018-06-08T06:53:51.077Z,17.20
2018-06-08T06:54:50.927Z,17.20
2018-06-08T06:55:50.937Z,17.22
2018-06-08T06:56:50.963Z,17.24
2018-06-08T06:57:50.980Z,17.28
2018-06-08T06:58:51.147Z,17.17
2018-06-08T06:59:51.008Z,17.27
2018-06-08T07:00:50.998Z,17.18
2018-06-08T07:01:51.014Z,17.25
2018-06-08T07:02:51.041Z,17.20
2018-06-08T07:03:51.207Z,17.25
2018-06-08T07:04:51.041Z,17.24
2018-06-08T07:05:51.058Z,17.20
2018-06-08T07:06:51.080Z,17.21
2018-06-08T07:07:51.081Z,17.25
2018-06-08T07:08:51.194Z,17.22
2018-06-08T07:09:51.108Z,17.24
2018-06-08T07:10:51.123Z,17.18
2018-06-08T07:11:51.135Z,17.15
2018-06-08T07:12:51.166Z,17.25
2018-06-08T07:13:51.258Z,17.21
2018-06-08T07:14:51.174Z,17.22
2018-06-08T07:15:51.212Z,17.18
2018-06-08T07:16:51.198Z,17.10
2018-06-08T07:17:51.210Z,17.10
2018-06-08T07:18:51.341Z,17.24
2018-06-08T07:19:51.238Z,17.13
2018-06-08T07:20:51.275Z,17.10
2018-06-08T07:21:51.262Z,17.24
2018-06-08T07:22:51.277Z,17.13
2018-06-08T07:23:51.471Z,17.18
2018-06-08T07:24:51.352Z,17.15
2018-06-08T07:25:51.321Z,17.18
2018-06-08T07:26:51.359Z,17.10
2018-06-08T07:27:51.349Z,17.10
2018-06-08T07:28:51.453Z,17.06
2018-06-08T07:29:51.361Z,17.12
2018-06-08T07:30:51.408Z,17.17
2018-06-08T07:31:51.493Z,17.12
2018-06-08T07:32:51.412Z,17.13
2018-06-08T07:33:51.422Z,17.10
2018-06-08T07:34:51.531Z,17.17
2018-06-08T07:35:51.443Z,17.17
2018-06-08T07:36:51.484Z,17.13
2018-06-08T07:37:51.503Z,17.13
2018-06-08T07:38:51.511Z,17.12
2018-06-08T07:39:51.660Z,17.03
2018-06-08T07:40:51.534Z,16.91
2018-06-08T07:41:51.549Z,16.99
2018-06-08T07:42:51.547Z,16.99
2018-06-08T07:43:51.546Z,17.02
2018-06-08T07:44:51.711Z,16.99
2018-06-08T07:45:51.574Z,16.99
2018-06-08T07:46:51.594Z,16.90
2018-06-08T07:47:51.600Z,16.91
2018-06-08T07:48:51.614Z,16.95
2018-06-08T07:49:51.722Z,16.94
2018-06-08T07:50:51.640Z,16.87
2018-06-08T07:51:51.654Z,16.88
2018-06-08T07:52:51.671Z,16.92
2018-06-08T07:53:51.763Z,16.91
2018-06-08T07:54:51.789Z,17.03
2018-06-08T07:55:51.761Z,16.99
2018-06-08T07:56:51.713Z,16.95
2018-06-08T07:57:51.758Z,16.92
2018-06-08T07:58:51.744Z,16.90
2018-06-08T07:59:51.885Z,16.91
2018-06-08T08:00:51.771Z,16.92
2018-06-08T08:01:51.813Z,16.92
2018-06-08T08:02:51.858Z,17.00
2018-06-08T08:03:51.825Z,16.94
2018-06-08T08:04:51.951Z,16.97
2018-06-08T08:05:51.862Z,16.90
2018-06-08T08:06:51.878Z,16.91
2018-06-08T08:07:51.860Z,16.87
2018-06-08T08:08:51.871Z,16.95
2018-06-08T08:09:52.062Z,16.91
2018-06-08T08:10:51.898Z,16.94
2018-06-08T08:11:51.935Z,16.99
2018-06-08T08:12:51.948Z,16.99
2018-06-08T08:13:51.963Z,16.99
2018-06-08T08:14:52.104Z,16.97
2018-06-08T08:15:51.988Z,16.91
2018-06-08T08:16:51.974Z,16.92
2018-06-08T08:17:52.012Z,16.88
2018-06-08T08:18:52.033Z,16.95
2018-06-08T08:19:52.191Z,16.90
2018-06-08T08:20:52.055Z,16.90
2018-06-08T08:21:52.035Z,16.92
2018-06-08T08:22:52.076Z,16.82
2018-06-08T08:23:52.060Z,16.81
2018-06-08T08:24:52.193Z,16.80
2018-06-08T08:25:52.126Z,16.80
2018-06-08T08:26:52.130Z,16.87
2018-06-08T08:27:52.114Z,16.82
2018-06-08T08:28:52.156Z,16.84
2018-06-08T08:29:52.323Z,16.81
2018-06-08T08:30:52.153Z,16.82
2018-06-08T08:31:52.169Z,16.85
2018-06-08T08:32:52.179Z,16.80
2018-06-08T08:33:52.197Z,16.82
2018-06-08T08:34:52.305Z,16.81
2018-06-08T08:35:52.219Z,16.82
2018-06-08T08:36:52.258Z,16.81
2018-06-08T08:37:52.244Z,16.81
2018-06-08T08:38:52.259Z,16.80
2018-06-08T08:39:52.372Z,16.73
2018-06-08T08:40:52.279Z,16.70
2018-06-08T08:41:52.292Z,16.73
2018-06-08T08:42:52.333Z,16.74
2018-06-08T08:43:52.321Z,16.73
2018-06-08T08:44:52.512Z,16.72
2018-06-08T08:45:52.345Z,16.72
2018-06-08T08:46:52.362Z,16.67
2018-06-08T08:47:52.372Z,16.67
2018-06-08T08:48:52.390Z,16.74
2018-06-08T08:49:52.423Z,16.65
2018-06-08T08:50:52.509Z,16.74
2018-06-08T08:51:52.426Z,16.77
2018-06-08T08:52:52.441Z,16.65
2018-06-08T08:53:52.450Z,16.80
2018-06-08T08:54:52.470Z,16.82
2018-06-08T08:55:52.654Z,16.74
2018-06-08T08:56:52.545Z,16.80
2018-06-08T08:57:52.505Z,16.67
2018-06-08T08:58:52.542Z,16.72
2018-06-08T08:59:52.535Z,16.76
2018-06-08T09:00:52.664Z,16.66
2018-06-08T09:01:52.552Z,16.73
2018-06-08T09:02:52.591Z,16.76
2018-06-08T09:03:52.583Z,16.81
2018-06-08T09:04:52.619Z,16.74
2018-06-08T09:05:52.778Z,16.80
2018-06-08T09:06:52.642Z,16.81
2018-06-08T09:07:52.629Z,16.94
2018-06-08T09:08:52.644Z,16.92
2018-06-08T09:09:52.654Z,16.95
2018-06-08T09:10:52.765Z,16.90
2018-06-08T09:11:52.691Z,16.95
2018-06-08T09:12:52.715Z,16.95
2018-06-08T09:13:52.729Z,16.94
2018-06-08T09:14:52.729Z,16.94
2018-06-08T09:15:52.902Z,16.92
2018-06-08T09:16:52.742Z,16.97
2018-06-08T09:17:52.754Z,16.99
2018-06-08T09:18:52.797Z,16.92
2018-06-08T09:19:52.811Z,16.94
2018-06-08T09:20:52.960Z,17.02
2018-06-08T09:21:52.806Z,16.92
2018-06-08T09:22:52.846Z,16.95
2018-06-08T09:23:52.832Z,17.07
2018-06-08T09:24:52.851Z,16.90
2018-06-08T09:25:52.957Z,17.09
2018-06-08T09:26:52.873Z,16.91
2018-06-08T09:27:52.912Z,17.07
2018-06-08T09:28:52.918Z,17.02
2018-06-08T09:29:52.936Z,16.91
2018-06-08T09:30:53.027Z,17.02
2018-06-08T09:31:52.937Z,17.00
2018-06-08T09:32:52.953Z,16.91
2018-06-08T09:33:52.958Z,17.05
2018-06-08T09:34:52.969Z,17.06
2018-06-08T09:35:53.089Z,17.02
2018-06-08T09:36:52.995Z,17.02
2018-06-08T09:37:53.023Z,17.05
2018-06-08T09:38:53.048Z,17.00
2018-06-08T09:39:53.050Z,17.09
2018-06-08T09:40:53.148Z,17.03
2018-06-08T09:41:53.068Z,17.00
2018-06-08T09:42:53.075Z,17.00
2018-06-08T09:43:53.084Z,17.05
2018-06-08T09:44:53.100Z,17.07
2018-06-08T09:45:53.260Z,17.10
2018-06-08T09:46:53.120Z,17.13
2018-06-08T09:47:53.136Z,17.12
2018-06-08T09:48:53.152Z,17.12
2018-06-08T09:49:53.178Z,17.07
2018-06-08T09:50:53.277Z,17.05
2018-06-08T09:51:53.208Z,17.10
2018-06-08T09:52:53.202Z,17.06
2018-06-08T09:53:53.218Z,17.13
2018-06-08T09:54:53.226Z,17.05
2018-06-08T09:55:53.390Z,17.09
2018-06-08T09:56:53.284Z,17.12
2018-06-08T09:57:53.296Z,17.10
2018-06-08T09:58:53.308Z,17.12
2018-06-08T09:59:53.287Z,17.09
2018-06-08T10:00:53.453Z,17.13
2018-06-08T10:01:53.314Z,17.07
2018-06-08T10:02:53.358Z,17.06
2018-06-08T10:03:53.357Z,17.07
2018-06-08T10:04:53.380Z,17.00
2018-06-08T10:05:53.370Z,17.06
2018-06-08T10:06:53.481Z,17.05
2018-06-08T10:07:53.422Z,17.06
2018-06-08T10:08:53.437Z,17.03
2018-06-08T10:09:53.446Z,17.07
2018-06-08T10:10:53.433Z,17.02
2018-06-08T10:11:53.621Z,17.03
2018-06-08T10:12:53.477Z,17.09
2018-06-08T10:13:53.495Z,16.99
2018-06-08T10:14:53.483Z,16.97
2018-06-08T10:15:53.523Z,16.97
2018-06-08T10:16:53.634Z,17.02
2018-06-08T10:17:53.524Z,17.03
2018-06-08T10:18:53.561Z,17.07
2018-06-08T10:19:53.548Z,17.10
2018-06-08T10:20:53.576Z,17.12
2018-06-08T10:21:53.724Z,17.06
2018-06-08T10:22:53.585Z,17.07
2018-06-08T10:23:53.624Z,17.10
2018-06-08T10:24:53.606Z,17.13
2018-06-08T10:25:53.629Z,17.15
2018-06-08T10:26:53.796Z,17.13
2018-06-08T10:27:53.682Z,17.10
2018-06-08T10:28:53.676Z,17.10
2018-06-08T10:29:53.677Z,17.09
2018-06-08T10:30:53.686Z,17.07
2018-06-08T10:31:53.809Z,17.13
2018-06-08T10:32:53.739Z,17.17
2018-06-08T10:33:53.815Z,17.20
2018-06-08T10:34:53.803Z,17.15
2018-06-08T10:35:53.810Z,17.10
2018-06-08T10:36:53.971Z,17.17
2018-06-08T10:37:53.864Z,17.09
2018-06-08T10:38:53.852Z,17.12
2018-06-08T10:39:53.936Z,17.15
2018-06-08T10:40:53.876Z,17.17
2018-06-08T10:41:53.960Z,17.18
2018-06-08T10:42:53.848Z,17.07
2018-06-08T10:43:53.872Z,17.05
2018-06-08T10:44:53.897Z,17.07
2018-06-08T10:45:53.883Z,17.06
2018-06-08T10:46:53.997Z,17.07
2018-06-08T10:47:53.912Z,17.10
2018-06-08T10:48:53.932Z,17.10
2018-06-08T10:49:53.961Z,17.10
2018-06-08T10:50:53.952Z,17.12
2018-06-08T10:51:54.109Z,17.13
2018-06-08T10:52:53.987Z,17.17
2018-06-08T10:53:53.998Z,17.10
2018-06-08T10:54:54.001Z,17.20
2018-06-08T10:55:54.039Z,17.13
2018-06-08T10:56:54.157Z,17.20
2018-06-08T10:57:54.044Z,17.20
2018-06-08T10:58:54.063Z,17.13
2018-06-08T10:59:54.085Z,17.22
2018-06-08T11:00:54.108Z,17.12
2018-06-08T11:01:54.218Z,17.10
2018-06-08T11:02:54.105Z,17.17
2018-06-08T11:03:54.134Z,17.18
2018-06-08T11:04:54.138Z,17.13
2018-06-08T11:05:54.144Z,17.15
2018-06-08T11:06:54.283Z,17.13
2018-06-08T11:07:54.173Z,17.15
2018-06-08T11:08:54.208Z,17.15
2018-06-08T11:09:54.200Z,17.17
2018-06-08T11:10:54.226Z,17.10
2018-06-08T11:11:54.351Z,17.12
2018-06-08T11:12:54.248Z,17.18
2018-06-08T11:13:54.254Z,17.15
2018-06-08T11:14:54.295Z,17.18
2018-06-08T11:15:54.307Z,17.18
2018-06-08T11:16:54.440Z,17.13
2018-06-08T11:17:54.328Z,17.22
2018-06-08T11:18:54.330Z,17.13
2018-06-08T11:19:54.345Z,17.25
2018-06-08T11:20:54.341Z,17.17
2018-06-08T11:21:54.357Z,17.22
2018-06-08T11:22:54.548Z,17.22
2018-06-08T11:23:54.391Z,17.20
2018-06-08T11:24:54.397Z,17.22
2018-06-08T11:25:54.408Z,17.35
2018-06-08T11:26:54.495Z,17.31
2018-06-08T11:27:54.615Z,17.30
2018-06-08T11:28:54.453Z,17.31
2018-06-08T11:29:54.489Z,17.30
2018-06-08T11:30:54.472Z,17.35
2018-06-08T11:31:54.484Z,17.39
2018-06-08T11:32:54.598Z,17.32
2018-06-08T11:33:54.514Z,17.36
2018-06-08T11:34:54.550Z,17.38
2018-06-08T11:35:54.541Z,17.28
2018-06-08T11:36:54.554Z,17.30
2018-06-08T11:37:54.723Z,17.35
2018-06-08T11:38:54.587Z,17.32
2018-06-08T11:39:54.604Z,17.30
2018-06-08T11:40:54.608Z,17.22
2018-06-08T11:41:54.620Z,17.27
2018-06-08T11:42:54.751Z,17.35
2018-06-08T11:43:54.643Z,17.36
2018-06-08T11:44:54.670Z,17.35
2018-06-08T11:45:54.706Z,17.30
2018-06-08T11:46:54.713Z,17.32
2018-06-08T11:47:54.799Z,17.28
2018-06-08T11:48:54.757Z,17.36
2018-06-08T11:49:54.729Z,17.32
2018-06-08T11:50:54.772Z,17.46
2018-06-08T11:51:54.778Z,17.27
2018-06-08T11:52:54.894Z,17.42
2018-06-08T11:53:54.776Z,17.38
2018-06-08T11:54:54.791Z,17.42
2018-06-08T11:55:54.800Z,17.42
2018-06-08T11:56:54.817Z,17.49
2018-06-08T11:57:54.983Z,17.52
2018-06-08T11:58:54.864Z,17.43
2018-06-08T11:59:54.861Z,17.47
2018-06-08T12:00:54.872Z,17.39
2018-06-08T12:01:54.887Z,17.46
2018-06-08T12:02:55.001Z,17.46
2018-06-08T12:03:54.910Z,17.45
2018-06-08T12:04:54.949Z,17.42
2018-06-08T12:05:54.965Z,17.42
2018-06-08T12:06:54.957Z,17.43
2018-06-08T12:07:55.112Z,17.43
2018-06-08T12:08:54.976Z,17.40
2018-06-08T12:09:54.990Z,17.43
2018-06-08T12:10:55.006Z,17.42
2018-06-08T12:11:55.013Z,17.47
2018-06-08T12:12:55.161Z,17.42
2018-06-08T12:13:55.055Z,17.50
2018-06-08T12:14:55.062Z,17.49
2018-06-08T12:15:55.099Z,17.45
2018-06-08T12:16:55.084Z,17.52
2018-06-08T12:17:55.202Z,17.46
2018-06-08T12:19:14.321Z,17.50
2018-06-08T12:19:55.128Z,17.46
2018-06-08T12:20:55.170Z,17.50
2018-06-08T12:21:55.150Z,17.54
2018-06-08T12:22:55.277Z,17.52
2018-06-08T12:23:55.209Z,17.58
2018-06-08T12:24:55.190Z,17.65
2018-06-08T12:25:55.238Z,17.65
2018-06-08T12:26:55.224Z,17.63
2018-06-08T12:27:55.363Z,17.80
2018-06-08T12:28:55.273Z,17.79
2018-06-08T12:29:55.262Z,17.86
2018-06-08T12:30:55.278Z,17.71
2018-06-08T12:31:55.320Z,17.83
2018-06-08T12:32:55.401Z,17.88
2018-06-08T12:33:55.324Z,17.86
2018-06-08T12:34:55.339Z,17.80
2018-06-08T12:35:55.358Z,17.87
2018-06-08T12:36:55.376Z,17.95
2018-06-08T12:37:55.400Z,18.01
2018-06-08T12:38:55.539Z,18.08
2018-06-08T12:39:55.427Z,18.02
2018-06-08T12:40:55.438Z,18.08
2018-06-08T12:41:55.427Z,18.14
2018-06-08T12:42:55.444Z,18.23
2018-06-08T12:43:55.574Z,18.31
2018-06-08T12:44:55.482Z,18.31
2018-06-08T12:45:55.513Z,18.35
2018-06-08T12:46:55.529Z,18.32
2018-06-08T12:47:55.515Z,18.38
2018-06-08T12:48:55.701Z,18.39
2018-06-08T12:49:55.552Z,18.53
2018-06-08T12:50:55.554Z,18.54
2018-06-08T12:51:55.599Z,18.57
2018-06-08T12:52:55.614Z,18.63